^^
Meteo Knjazevac Station Historical Data
Daily Summary for April 6, 2021 Units:  Both    English   Metric
Daily Weekly Monthly Yearly Custom
  High: Low: Average:
Temperature: 65.3 °F /  18.5 °C 62.2 °F /  16.8 °C 63.6 °F /  17.6 °C
Dew Point: 62.6 °F /  17 °C 60.8 °F /  16 °C 61.6 °F /  16.4 °C
Humidity: 95% 91% 93%
Wind Speed: 3mph /  4.8km/h - 1mph /  1.6km/h
Wind Gust: 6mph /  9.7km/h - -
Wind- - South
Pressure: 29.99 in /  1015.5 hPa 29.98 in /  1015.1 hPa -
Precipitation: 0.00 in /  0 mm    
Historical Graphs
 
 
Tabular Data for April 6, 2021
Time Temperature Dew Point Pressure Wind Wind Speed Wind Gust Humidity Rainfall Rate (Hourly) solar Conditions
00:00 65.3 °F /  18.5 °C 62.6 °F /  17 °C 29.98in /  1015.1hPa Calm   4mph /  6.4km/h 91% 0.00in /  0mm 0 W/m2
00:10 65.1 °F /  18.4 °C 62.4 °F /  16.9 °C 29.98in /  1015.1hPa SSE 1mph /  1.6km/h 3mph /  4.8km/h 91% 0.00in /  0mm 0 W/m2
00:20 64.9 °F /  18.3 °C 62.2 °F /  16.8 °C 29.98in /  1015.1hPa Calm   2mph /  3.2km/h 91% 0.00in /  0mm 0 W/m2
00:30 64.8 °F /  18.2 °C 62.1 °F /  16.7 °C 29.98in /  1015.1hPa Calm     91% 0.00in /  0mm 0 W/m2
00:40 64.6 °F /  18.1 °C 61.9 °F /  16.6 °C 29.98in /  1015.1hPa NNW 1mph /  1.6km/h 2mph /  3.2km/h 91% 0.00in /  0mm 0 W/m2
00:50 64.5 °F /  18.1 °C 61.9 °F /  16.6 °C 29.98in /  1015.1hPa North 1mph /  1.6km/h 2mph /  3.2km/h 91% 0.00in /  0mm 0 W/m2
01:00 64.4 °F /  18 °C 62.3 °F /  16.8 °C 29.98in /  1015.1hPa WSW 2mph /  3.2km/h 6mph /  9.7km/h 93% 0.00in /  0mm 0 W/m2
01:10 64.2 °F /  17.9 °C 62.2 °F /  16.8 °C 29.98in /  1015.1hPa NW 1mph /  1.6km/h 5mph /  8km/h 93% 0.00in /  0mm 0 W/m2
01:20 63.9 °F /  17.7 °C 61.8 °F /  16.6 °C 29.98in /  1015.1hPa South 2mph /  3.2km/h 6mph /  9.7km/h 93% 0.00in /  0mm 0 W/m2
01:30 63.7 °F /  17.6 °C 61.6 °F /  16.4 °C 29.98in /  1015.1hPa Calm   5mph /  8km/h 93% 0.00in /  0mm 0 W/m2
01:40 63.5 °F /  17.5 °C 61.4 °F /  16.3 °C 29.98in /  1015.1hPa Calm   2mph /  3.2km/h 93% 0.00in /  0mm 0 W/m2
01:50 63.5 °F /  17.5 °C 61.4 °F /  16.3 °C 29.98in /  1015.1hPa NE 1mph /  1.6km/h 3mph /  4.8km/h 93% 0.00in /  0mm 0 W/m2
02:00 63.3 °F /  17.4 °C 61.3 °F /  16.3 °C 29.98in /  1015.1hPa SSW 1mph /  1.6km/h 3mph /  4.8km/h 93% 0.00in /  0mm 0 W/m2
02:10 63.1 °F /  17.3 °C 61.4 °F /  16.3 °C 29.98in /  1015.1hPa SW 1mph /  1.6km/h 3mph /  4.8km/h 94% 0.00in /  0mm 0 W/m2
02:20 63 °F /  17.2 °C 61.2 °F /  16.2 °C 29.98in /  1015.1hPa South 3mph /  4.8km/h 5mph /  8km/h 94% 0.00in /  0mm 0 W/m2
02:30 63 °F /  17.2 °C 61.2 °F /  16.2 °C 29.98in /  1015.1hPa SW 2mph /  3.2km/h 3mph /  4.8km/h 94% 0.00in /  0mm 0 W/m2
02:40 62.8 °F /  17.1 °C 61 °F /  16.1 °C 29.98in /  1015.1hPa South 2mph /  3.2km/h 6mph /  9.7km/h 94% 0.00in /  0mm 0 W/m2
02:50 62.6 °F /  17 °C 60.8 °F /  16 °C 29.98in /  1015.1hPa SSW 1mph /  1.6km/h 5mph /  8km/h 94% 0.00in /  0mm 0 W/m2
03:00 62.4 °F /  16.9 °C 61 °F /  16.1 °C 29.98in /  1015.1hPa SSE 1mph /  1.6km/h 5mph /  8km/h 95% 0.00in /  0mm 0 W/m2
03:10 62.4 °F /  16.9 °C 61 °F /  16.1 °C 29.99in /  1015.5hPa SE 1mph /  1.6km/h 5mph /  8km/h 95% 0.00in /  0mm 0 W/m2
03:20 62.4 °F /  16.9 °C 61 °F /  16.1 °C 29.99in /  1015.5hPa ENE 1mph /  1.6km/h 4mph /  6.4km/h 95% 0.00in /  0mm 0 W/m2
03:30 62.2 °F /  16.8 °C 60.8 °F /  16 °C 29.99in /  1015.5hPa Calm   2mph /  3.2km/h 95% 0.00in /  0mm 0 W/m2
Knjazevac, Serbia
Compliments of Weather Underground - 2 mb